Latest Weather Observations for Trepell

IDQ60801

Issued at 9:32 am EST Sunday 17 February 2019 (issued every 10 minutes, with the page automatically refreshed every 10 minutes)

About weather observations | Map of weather stations | Latest weather observations for QLD | Other Formats
Station Details ID: 037036 Name: TREPELL AIRPORT Lat: -21.84 Lon: 140.89 Height: 266.2 m
Data from the previous 72 hours. | See also: Recent months at Trepell
Date/Time
EST
Temp
°C
App
Temp
°C
Dew
Point
°C
Rel
Hum
%
Delta-T
°C
Wind Press
QNH
hPa
Press
MSL
hPa
Rain since
9am
mm
Dir  Spd
km/h
Gust
km/h
Spd
kts
Gust
kts
17/09:30am 33.7 31.1 6.1 18 15.1 W 9 13 5 7 1012.3 1010.2 0.0
17/09:00am 32.2 29.9 10.3 26 12.7 WNW 13 13 7 7 1012.1 1010.0 -
17/08:30am 29.8 27.9 10.4 30 11.2 WNW 11 15 6 8 1012.0 1009.9 -
17/08:00am 27.7 26.5 11.7 37 9.3 NNW 9 11 5 6 1011.6 1009.6 -
17/07:30am 25.1 24.3 11.6 42 7.7 NNW 7 9 4 5 1011.3 1009.3 -
17/07:00am 23.4 21.9 11.8 48 6.6 NW 11 11 6 6 1010.9 1008.9 -
17/06:30am 21.4 20.7 12.0 55 5.3 NNW 7 9 4 5 1010.8 1008.8 -
17/06:00am 21.1 20.2 11.4 54 5.4 NNW 7 9 4 5 1010.7 1008.7 -
17/05:30am 22.6 21.8 11.0 48 6.5 NW 6 9 3 5 1010.6 1008.6 -
17/05:00am 23.5 22.0 10.6 44 7.2 NNW 9 11 5 6 1010.4 1008.4 -
17/04:30am 23.9 21.9 10.2 42 7.6 NNW 11 15 6 8 1010.2 1008.1 -
17/04:00am 23.7 21.5 10.7 44 7.3 NNW 13 15 7 8 1010.2 1008.1 -
17/03:30am 24.0 21.4 10.7 43 7.5 NNW 15 17 8 9 1010.1 1008.0 -
17/03:00am 23.7 21.8 11.7 47 6.9 NNW 13 15 7 8 1009.9 1007.8 0.0
17/02:30am 24.6 22.6 11.5 44 7.5 NW 13 15 7 8 1009.9 1007.8 -
17/02:06am 25.0 23.4 11.6 43 7.7 NW 11 13 6 7 1010.1 1008.0 -
17/02:00am 24.7 22.8 10.6 41 7.9 NW 11 13 6 7 1010.2 1008.1 -
17/01:30am 25.5 24.2 11.3 41 8.1 NW 9 11 5 6 1010.6 1008.6 -
17/01:26am 25.8 24.5 11.2 40 8.3 NNW 9 11 5 6 1010.6 1008.6 -
17/01:00am 25.6 24.9 11.4 41 8.1 NNW 6 7 3 4 1010.9 1008.9 -
17/12:30am 27.2 26.1 10.8 36 9.4 SE 7 7 4 4 1011.1 1009.1 -
17/12:00am 25.6 24.5 12.1 43 7.8 ESE 9 11 5 6 1011.3 1009.3 -
 
Date/Time
EST
Temp
°C
App
Temp
°C
Dew
Point
°C
Rel
Hum
%
Delta-T
°C
Wind Press
QNH
hPa
Press
MSL
hPa
Rain since
9am
mm
Dir  Spd
km/h
Gust
km/h
Spd
kts
Gust
kts
16/11:30pm 26.5 26.2 14.3 47 7.4 SE 9 13 5 7 1011.5 1009.5 -
16/11:00pm 26.7 26.0 8.6 32 10.0 N 2 9 1 5 1011.5 1009.5 -
16/10:30pm 29.9 27.8 5.9 22 12.8 NW 6 9 3 5 1011.5 1009.5 -
16/10:00pm 30.2 28.0 5.5 21 13.1 NW 6 9 3 5 1011.4 1009.4 -
16/09:30pm 30.1 27.9 6.1 22 12.9 WNW 7 9 4 5 1011.2 1009.2 -
16/09:00pm 31.9 29.4 3.8 17 14.7 WNW 6 9 3 5 1011.1 1009.1 -
16/08:30pm 29.7 27.4 7.6 25 12.1 WSW 9 11 5 6 1011.0 1009.0 -
16/08:00pm 32.1 29.8 5.6 19 14.3 NE 7 9 4 5 1010.5 1008.5 -
16/07:30pm 33.2 30.9 4.9 17 15.1 N 6 9 3 5 1010.2 1008.1 -
16/07:00pm 34.5 31.9 3.1 14 16.5 S 6 9 3 5 1009.7 1007.6 -
16/06:30pm 35.8 33.6 3.1 13 17.2 SSE 4 9 2 5 1009.4 1007.3 -
16/06:00pm 36.1 32.8 2.2 12 17.7 SSE 9 13 5 7 1009.2 1007.1 -
16/05:30pm 36.6 33.3 2.6 12 17.9 S 9 13 5 7 1009.2 1007.1 -
16/05:00pm 36.6 33.9 3.7 13 17.6 SE 7 11 4 6 1009.2 1007.1 -
16/04:30pm 36.6 33.7 1.4 11 18.2 SSW 6 13 3 7 1009.4 1007.3 -
16/04:00pm 36.8 33.9 1.5 11 18.3 WNW 6 13 3 7 1009.7 1007.6 -
16/03:30pm 36.2 32.7 1.1 11 18.0 SE 9 13 5 7 1010.0 1007.9 -
16/03:00pm 36.1 32.2 1.0 11 18.0 ESE 11 19 6 10 1010.4 1008.4 0.0
16/02:30pm 36.5 33.2 2.5 12 17.8 SE 9 13 5 7 1010.7 1008.7 0.0
16/02:00pm 36.1 32.2 1.0 11 18.0 ENE 11 19 6 10 1011.2 1009.2 0.0
16/01:30pm 35.3 31.7 0.4 11 17.6 NW 9 19 5 10 1011.7 1009.7 0.0
16/01:00pm 35.3 32.2 1.6 12 17.3 E 7 15 4 8 1012.3 1010.2 0.0
16/12:30pm 34.9 31.4 1.3 12 17.1 SSE 9 17 5 9 1012.9 1010.8 0.0
16/12:00pm 33.9 29.7 -0.7 11 17.0 S 11 17 6 9 1013.4 1011.3 0.0
16/11:30am 33.6 29.6 0.3 12 16.6 SSE 11 17 6 9 1013.7 1011.6 0.0
16/11:00am 32.7 28.7 0.7 13 15.9 S 11 17 6 9 1014.0 1012.0 0.0
16/10:30am 31.9 27.5 0.1 13 15.6 SSW 13 17 7 9 1014.2 1012.2 0.0
16/10:00am 30.9 26.0 2.2 16 14.5 SSW 17 20 9 11 1014.4 1012.4 0.0
16/09:30am 29.9 25.1 0.5 15 14.3 S 15 19 8 10 1014.4 1012.4 0.0
16/09:00am 28.9 25.0 1.4 17 13.5 SSW 11 17 6 9 1014.2 1012.2 0.0
16/08:30am 27.3 24.4 2.4 20 12.3 SW 7 11 4 6 1014.1 1012.1 0.0
16/08:00am 25.5 22.7 5.1 27 10.5 WSW 9 11 5 6 1013.9 1011.9 0.0
16/07:30am 22.8 21.1 8.5 40 7.7 NW 7 7 4 4 1013.8 1011.8 0.0
16/07:00am 20.8 18.7 8.4 45 6.6 NW 9 11 5 6 1013.6 1011.5 0.0
16/06:30am 20.0 17.9 8.4 47 6.1 WNW 9 11 5 6 1013.2 1011.1 0.0
16/06:00am 20.7 18.6 8.4 45 6.5 W 9 11 5 6 1013.1 1011.0 0.0
16/05:30am 20.8 18.3 6.7 40 7.2 W 9 11 5 6 1012.9 1010.8 0.0
16/05:00am 20.9 18.5 6.8 40 7.3 W 9 11 5 6 1012.7 1010.6 0.0
16/04:30am 21.1 17.7 5.9 37 7.7 W 13 13 7 7 1012.5 1010.4 0.0
16/04:00am 21.2 17.9 6.3 38 7.6 W 13 13 7 7 1012.3 1010.2 0.0
16/03:30am 21.3 18.5 6.8 39 7.5 W 11 13 6 7 1012.4 1010.3 0.0
16/03:00am 21.5 19.0 8.1 42 7.1 WSW 11 11 6 6 1012.5 1010.4 0.0
16/02:30am 22.5 21.8 7.1 37 8.1 CALM 0 0 0 0 1012.7 1010.6 0.0
16/02:00am 22.3 21.7 7.3 38 7.9 CALM 0 0 0 0 1013.1 1011.0 0.0
16/01:30am 22.0 19.8 5.4 34 8.4 SSW 6 9 3 5 1013.4 1011.3 0.0
16/01:00am 23.2 20.5 5.6 32 9.0 SW 9 11 5 6 1013.6 1011.5 0.0
16/12:30am 23.9 21.5 5.3 30 9.5 WSW 7 11 4 6 1013.7 1011.6 0.0
16/12:00am 24.3 21.2 5.6 30 9.6 SW 11 13 6 7 1013.8 1011.8 0.0
 
Date/Time
EST
Temp
°C
App
Temp
°C
Dew
Point
°C
Rel
Hum
%
Delta-T
°C
Wind Press
QNH
hPa
Press
MSL
hPa
Rain since
9am
mm
Dir  Spd
km/h
Gust
km/h
Spd
kts
Gust
kts
15/11:30pm 24.5 21.6 6.3 31 9.5 SW 11 13 6 7 1013.9 1011.9 0.0
15/11:00pm 25.2 22.5 7.3 32 9.5 SW 11 13 6 7 1014.0 1012.0 0.0
15/10:30pm 25.5 22.6 6.7 30 9.9 SSW 11 13 6 7 1013.7 1011.6 0.0
15/10:00pm 26.5 23.6 6.5 28 10.6 SW 11 11 6 6 1013.5 1011.4 0.0
15/09:30pm 26.8 23.8 6.2 27 10.9 SW 11 11 6 6 1013.3 1011.2 0.0
15/09:00pm 27.2 24.2 6.0 26 11.2 SW 11 11 6 6 1013.1 1011.0 0.0
15/08:30pm 28.2 25.5 5.7 24 11.9 SW 9 11 5 6 1012.7 1010.6 0.0
15/08:00pm 29.2 25.5 4.6 21 12.8 SSW 13 15 7 8 1012.3 1010.2 0.0
15/07:30pm 30.1 26.3 4.0 19 13.5 SW 13 15 7 8 1011.7 1009.7 0.0
15/07:00pm 32.1 28.1 3.1 16 15.0 SW 13 19 7 10 1011.4 1009.4 0.0
15/06:30pm 33.6 29.0 1.4 13 16.3 SSW 15 19 8 10 1011.2 1009.2 0.0
15/06:00pm 34.5 30.6 1.0 12 17.0 SW 11 17 6 9 1011.1 1009.1 0.0
15/05:30pm 34.4 30.8 0.9 12 16.9 S 9 15 5 8 1011.2 1009.2 0.0
15/05:00pm 34.8 31.3 1.2 12 17.1 SW 9 17 5 9 1011.2 1009.2 0.0
15/04:30pm 34.6 29.9 1.1 12 17.0 S 15 24 8 13 1011.3 1009.3 0.0
15/04:00pm 34.3 30.2 -0.4 11 17.2 SSW 11 17 6 9 1011.5 1009.5 0.0
15/03:30pm 34.6 30.3 1.1 12 17.0 SW 13 19 7 10 1011.8 1009.8 0.0
15/03:00pm 35.0 31.3 2.5 13 16.9 SW 11 22 6 12 1012.2 1010.1 0.0
15/02:30pm 34.0 29.6 0.6 12 16.7 W 13 19 7 10 1012.7 1010.6 0.0
15/02:00pm 33.8 30.6 0.5 12 16.7 WNW 7 15 4 8 1013.2 1011.1 0.0
15/01:30pm 33.8 30.4 1.6 13 16.4 WSW 9 15 5 8 1013.5 1011.4 0.0
15/01:00pm 33.0 29.2 2.0 14 15.8 SSE 11 17 6 9 1013.7 1011.6 0.0
15/12:30pm 32.4 28.3 2.5 15 15.3 ESE 13 19 7 10 1014.0 1012.0 0.0
15/12:00pm 32.0 28.3 2.1 15 15.2 ESE 11 19 6 10 1014.4 1012.4 0.0
15/11:30am 31.5 28.7 5.1 19 14.0 SSE 9 17 5 9 1014.8 1012.8 0.0
15/11:00am 29.5 26.6 4.9 21 12.9 SSE 9 17 5 9 1015.1 1013.1 0.0
15/10:30am 28.6 25.3 4.8 22 12.4 S 11 17 6 9 1015.4 1013.4 0.0
15/10:00am 27.6 24.4 5.2 24 11.7 S 11 17 6 9 1015.3 1013.3 0.0
15/09:30am 26.6 23.2 3.8 23 11.5 S 11 17 6 9 1015.3 1013.3 0.0
15/09:00am 25.5 22.1 5.7 28 10.3 SSW 13 17 7 9 1015.3 1013.3 0.0
15/08:30am 24.5 20.9 4.8 28 10.0 SW 13 17 7 9 1014.9 1012.9 0.0
15/08:00am 23.2 19.3 3.2 27 9.8 SW 13 17 7 9 1014.9 1012.9 0.0
15/07:30am 21.7 17.9 3.9 31 8.7 WSW 13 15 7 8 1014.5 1012.5 0.0
15/07:00am 20.2 17.2 4.3 35 7.8 WSW 9 13 5 7 1014.4 1012.4 0.0
15/06:30am 18.9 16.1 5.0 40 6.8 WSW 9 11 5 6 1014.1 1012.1 0.0
15/06:00am 19.7 16.0 2.6 32 8.0 SW 11 13 6 7 1013.6 1011.5 0.0
15/05:30am 20.9 16.4 2.2 29 8.8 WSW 15 17 8 9 1013.3 1011.2 0.0
15/05:00am 20.1 16.3 3.8 34 7.9 WSW 13 17 7 9 1012.9 1010.8 0.0
15/04:30am 20.0 16.5 5.6 39 7.2 WSW 13 13 7 7 1012.9 1010.8 0.0
15/04:00am 20.4 16.9 5.6 38 7.4 WSW 13 15 7 8 1012.9 1010.8 0.0
15/03:30am 21.0 17.4 5.0 35 8.0 WSW 13 13 7 7 1012.9 1010.8 0.0
15/03:00am 21.3 17.7 5.2 35 8.1 WSW 13 15 7 8 1013.0 1010.9 0.0
15/02:30am 21.3 18.1 5.2 35 8.1 WSW 11 13 6 7 1013.2 1011.1 0.0
15/02:00am 21.7 18.5 5.2 34 8.3 SW 11 15 6 8 1013.4 1011.3 0.0
15/01:30am 21.5 18.1 5.8 36 8.0 SW 13 15 7 8 1013.5 1011.4 0.0
15/01:00am 21.8 18.4 5.7 35 8.2 SW 13 15 7 8 1013.7 1011.6 0.0
15/12:30am 22.7 19.1 5.2 32 8.8 SW 13 15 7 8 1013.9 1011.9 0.0
15/12:00am 23.9 19.5 4.8 29 9.7 SW 17 19 9 10 1014.0 1012.0 0.0
 
Date/Time
EST
Temp
°C
App
Temp
°C
Dew
Point
°C
Rel
Hum
%
Delta-T
°C
Wind Press
QNH
hPa
Press
MSL
hPa
Rain since
9am
mm
Dir  Spd
km/h
Gust
km/h
Spd
kts
Gust
kts
14/11:30pm 24.2 20.2 5.1 29 9.7 SW 15 20 8 11 1014.1 1012.1 0.0
14/11:00pm 24.6 21.1 5.4 29 9.9 SW 13 19 7 10 1014.0 1012.0 0.0
14/10:30pm 25.1 21.7 5.8 29 10.0 SW 13 17 7 9 1013.9 1011.9 0.0
14/10:00pm 26.3 21.9 4.7 25 11.1 SSW 17 22 9 12 1013.8 1011.8 0.0
14/09:30pm 25.9 22.4 5.5 27 10.6 SW 13 15 7 8 1013.4 1011.3 0.0
14/09:00pm 27.2 23.7 5.5 25 11.3 SW 13 15 7 8 1013.4 1011.3 0.0
14/08:30pm 27.5 24.4 5.7 25 11.4 SW 11 13 6 7 1013.1 1011.0 0.0
14/08:00pm 28.5 24.5 4.7 22 12.4 SSW 15 19 8 10 1012.7 1010.6 0.0
14/07:30pm 29.5 25.0 4.2 20 13.1 SSW 17 24 9 13 1012.2 1010.1 0.0
14/07:00pm 30.6 26.1 4.4 19 13.7 SSW 17 22 9 12 1011.7 1009.7 0.0
14/06:30pm 31.7 26.7 4.5 18 14.3 SSW 20 26 11 14 1011.3 1009.3 0.0
14/06:00pm 32.4 27.3 4.2 17 14.9 SSW 20 26 11 14 1011.1 1009.1 0.0
14/05:30pm 32.9 27.9 4.6 17 15.0 SSW 20 28 11 15 1011.1 1009.1 0.0
14/05:00pm 33.0 28.0 4.7 17 15.1 S 20 30 11 16 1011.0 1009.0 0.0
14/04:30pm 33.3 28.6 5.0 17 15.2 SSW 19 30 10 16 1011.1 1009.1 0.0
14/04:00pm 33.2 27.9 4.9 17 15.2 SW 22 30 12 16 1011.2 1009.2 0.0
14/03:30pm 33.2 28.4 4.9 17 15.1 SSW 19 30 10 16 1011.3 1009.3 0.0
14/03:00pm 33.6 28.9 6.0 18 15.1 SSW 20 30 11 16 1011.4 1009.4 0.0
14/02:30pm 33.1 28.9 5.6 18 14.9 S 17 24 9 13 1011.8 1009.8 0.0
14/02:00pm 32.4 27.5 4.2 17 14.9 S 19 26 10 14 1012.1 1010.0 0.0
14/01:30pm 31.7 27.9 3.7 17 14.6 S 13 22 7 12 1012.4 1010.3 0.0
14/01:00pm 32.0 27.8 5.5 19 14.2 S 17 28 9 15 1012.6 1010.5 0.0
14/12:30pm 31.6 27.1 5.9 20 13.9 S 19 28 10 15 1012.9 1010.8 0.0
14/12:00pm 30.3 25.8 4.1 19 13.6 S 17 28 9 15 1013.1 1011.0 0.0
14/11:30am 30.2 25.3 4.0 19 13.6 SSE 19 24 10 13 1013.4 1011.3 0.0
14/11:00am 29.7 25.4 5.1 21 13.0 SSE 17 24 9 13 1013.8 1011.8 0.0
14/10:30am 28.1 23.3 4.4 22 12.2 SSE 19 24 10 13 1013.9 1011.9 0.0
14/10:00am 27.0 21.9 5.9 26 11.1 SSE 22 28 12 15 1013.9 1011.9 0.0

Other Formats:

Comma delimited format used in spreadsheet applications
http://www.bom.gov.au/fwo/IDQ60801/IDQ60801.94338.axf

JavaScript Object Notation format (JSON) in row-major order
http://www.bom.gov.au/fwo/IDQ60801/IDQ60801.94338.json